Time;durP1;ratioP1;P1;durP2;ratioP2;P2;SDS_P1;SDS_P2;PMS_P1;PMS_P2;Temp;Humidity;BMP_temperature;BMP_pressure;BME280_temperature;BME280_humidity;BME280_pressure;Samples;Min_cycle;Max_cycle;Signal;HPM_P1;HPM_P2
2023/07/16 00:01:15;;;;;;;;;24.00;23.40;;;;;27.33;43.63;99239.59;5036181;28;8903;-76
2023/07/16 00:03:58;;;;;;;;;24.80;23.60;;;;;27.24;44.07;99244.84;5085886;28;8836;-75
2023/07/16 00:06:27;;;;;;;;;21.20;21.20;;;;;27.24;43.87;99244.00;5085833;28;8844;-75
2023/07/16 00:08:55;;;;;;;;;24.40;24.40;;;;;27.18;44.21;99239.22;5085872;28;8898;-77
2023/07/16 00:11:24;;;;;;;;;26.75;26.25;;;;;27.13;44.21;99236.94;5052378;28;8890;-78
2023/07/16 00:13:53;;;;;;;;;24.80;24.80;;;;;27.17;44.02;99235.66;5068153;28;8859;-76
2023/07/16 00:16:24;;;;;;;;;25.60;25.60;;;;;27.23;44.06;99243.19;5067161;28;8835;-73
2023/07/16 00:18:52;;;;;;;;;23.00;22.60;;;;;27.26;43.89;99239.31;5068354;28;8855;-75
2023/07/16 00:21:21;;;;;;;;;21.20;20.40;;;;;27.18;43.86;99236.53;5066746;28;9601;-76
2023/07/16 00:23:50;;;;;;;;;25.00;23.75;;;;;26.97;44.95;99248.31;5068338;28;8860;-75
2023/07/16 00:26:19;;;;;;;;;26.80;26.40;;;;;26.91;45.03;99242.66;5068073;28;8951;-78
2023/07/16 00:28:48;;;;;;;;;24.40;22.40;;;;;26.94;45.09;99245.06;5068315;28;9577;-76
2023/07/16 00:31:17;;;;;;;;;23.80;23.80;;;;;26.95;44.67;99233.25;5066805;28;8846;-75
2023/07/16 00:33:47;;;;;;;;;19.60;19.60;;;;;26.95;44.61;99230.56;5067118;28;8862;-76
2023/07/16 00:36:16;;;;;;;;;22.60;22.60;;;;;26.85;44.72;99238.69;5066687;28;8859;-75
2023/07/16 00:38:46;;;;;;;;;24.60;24.60;;;;;26.88;44.60;99230.31;5066748;28;8851;-77
2023/07/16 00:41:15;;;;;;;;;23.00;20.60;;;;;26.93;44.00;99227.16;5066918;28;8885;-77
2023/07/16 00:43:44;;;;;;;;;22.20;22.20;;;;;26.99;44.11;99224.75;5066831;28;8858;-77
2023/07/16 00:46:13;;;;;;;;;20.80;20.60;;;;;27.03;43.87;99225.34;5083410;28;8875;-74
2023/07/16 00:48:44;;;;;;;;;21.60;21.60;;;;;27.01;43.41;99217.34;5067062;28;8858;-76
2023/07/16 00:51:15;;;;;;;;;19.20;19.20;;;;;27.01;43.58;99220.06;5067946;28;8853;-75
2023/07/16 00:53:44;;;;;;;;;18.80;18.80;;;;;26.97;43.27;99232.13;5067098;28;9008;-77
2023/07/16 00:56:17;;;;;;;;;21.40;21.20;;;;;26.98;43.51;99228.44;5066787;28;8923;-77
2023/07/16 00:58:46;;;;;;;;;22.60;22.60;;;;;26.96;43.30;99222.34;5068150;28;8931;-75
2023/07/16 01:01:15;;;;;;;;;20.20;19.40;;;;;26.98;43.44;99223.03;5066498;28;8862;-76
2023/07/16 01:03:46;;;;;;;;;19.80;19.80;;;;;26.96;43.25;99229.59;5066907;28;8869;-77
2023/07/16 01:06:23;;;;;;;;;21.20;20.20;;;;;26.99;43.09;99229.31;5050010;28;8846;-76
2023/07/16 01:08:59;;;;;;;;;23.60;21.80;;;;;26.92;43.32;99231.72;5068203;28;8858;-75
2023/07/16 01:11:29;;;;;;;;;18.60;17.80;;;;;26.82;43.63;99226.34;5067876;28;8866;-77
2023/07/16 01:13:58;;;;;;;;;22.20;22.00;;;;;26.82;43.39;99229.03;5067829;28;9621;-76
2023/07/16 01:16:29;;;;;;;;;20.80;19.80;;;;;26.81;43.33;99221.09;5049930;28;8843;-76
2023/07/16 01:18:59;;;;;;;;;22.00;22.00;;;;;26.76;43.77;99218.84;5066458;28;8965;-76
2023/07/16 01:21:35;;;;;;;;;17.60;17.60;;;;;26.70;43.60;99218.56;5066529;28;8927;-76
2023/07/16 01:24:21;;;;;;;;;19.00;18.40;;;;;26.79;43.71;99220.38;5067618;28;8862;-77
2023/07/16 01:27:15;;;;;;;;;19.80;18.80;;;;;26.85;43.00;99214.41;5071520;28;8854;-75
2023/07/16 01:29:50;;;;;;;;;18.80;18.00;;;;;26.82;42.99;99212.03;5070234;28;8847;-77
2023/07/16 01:32:23;;;;;;;;;20.00;18.80;;;;;26.73;43.71;99215.59;5069702;28;8862;-76
2023/07/16 01:34:54;;;;;;;;;17.80;17.20;;;;;26.78;43.35;99208.75;5036013;28;8858;-76
2023/07/16 01:37:23;;;;;;;;;17.80;17.00;;;;;26.73;42.97;99213.72;5069926;28;8830;-77
2023/07/16 01:39:52;;;;;;;;;20.80;19.00;;;;;26.75;42.71;99211.72;5051635;28;8901;-78
2023/07/16 01:42:21;;;;;;;;;20.60;20.60;;;;;26.73;43.24;99208.34;5051533;28;8850;-76
2023/07/16 01:44:51;;;;;;;;;16.80;16.80;;;;;26.75;42.93;99214.44;5068242;28;9664;-75
2023/07/16 01:47:29;;;;;;;;;16.60;16.60;;;;;26.75;43.15;99214.44;5051969;28;8846;-75
2023/07/16 01:49:58;;;;;;;;;21.00;20.00;;;;;26.70;42.82;99208.63;5068270;28;8865;-74
2023/07/16 01:52:28;;;;;;;;;19.80;19.00;;;;;26.70;42.85;99205.06;5051371;28;8858;-77
2023/07/16 01:54:57;;;;;;;;;17.00;17.00;;;;;26.71;43.05;99204.94;5068137;28;8909;-75
2023/07/16 01:57:26;;;;;;;;;21.60;20.60;;;;;26.64;43.08;99203.81;5031419;28;8853;-75
2023/07/16 01:59:56;;;;;;;;;17.60;17.60;;;;;26.66;42.82;99205.38;5031380;28;8991;-76
2023/07/16 02:02:25;;;;;;;;;21.00;20.00;;;;;26.66;43.04;99208.09;4998296;28;8849;-76
2023/07/16 02:04:54;;;;;;;;;17.20;17.20;;;;;26.70;42.56;99207.78;5031666;28;8853;-75
2023/07/16 02:07:24;;;;;;;;;14.60;14.60;;;;;26.68;43.16;99202.53;5014749;28;8845;-77
2023/07/16 02:09:52;;;;;;;;;21.60;19.40;;;;;26.70;42.83;99205.91;5031284;28;8869;-77
2023/07/16 02:12:21;;;;;;;;;21.20;20.20;;;;;26.56;43.66;99206.38;5034492;28;8854;-76
2023/07/16 02:14:50;;;;;;;;;22.80;22.40;;;;;26.47;43.75;99205.38;5051242;28;9640;-77
2023/07/16 02:17:21;;;;;;;;;19.60;19.60;;;;;26.50;43.85;99204.28;5050883;28;9996;-75
2023/07/16 02:19:49;;;;;;;;;18.00;17.80;;;;;26.54;43.35;99206.53;5067878;28;8890;-74
2023/07/16 02:22:18;;;;;;;;;20.80;20.00;;;;;26.54;43.47;99202.97;5050671;28;8850;-74
2023/07/16 02:24:47;;;;;;;;;14.80;14.40;;;;;26.54;43.33;99201.13;5067680;28;8973;-77
2023/07/16 02:27:16;;;;;;;;;19.40;19.40;;;;;26.52;42.88;99207.66;5067499;28;8877;-78
2023/07/16 02:29:45;;;;;;;;;20.80;20.40;;;;;26.50;42.83;99205.13;5067878;28;8846;-75
2023/07/16 02:32:14;;;;;;;;;21.60;20.40;;;;;26.50;42.95;99206.97;5034643;28;8947;-77
2023/07/16 02:34:44;;;;;;;;;21.80;20.60;;;;;26.48;43.40;99209.78;5052034;28;8959;-76
2023/07/16 02:37:13;;;;;;;;;23.20;20.00;;;;;26.47;42.71;99211.66;5067333;28;8861;-74
2023/07/16 02:39:43;;;;;;;;;19.20;19.20;;;;;26.46;43.30;99217.16;5068835;28;8989;-75
2023/07/16 02:42:12;;;;;;;;;19.40;19.20;;;;;26.48;43.17;99216.03;5068138;28;8871;-74
2023/07/16 02:44:44;;;;;;;;;18.40;18.00;;;;;26.47;42.97;99219.75;5068607;28;8847;-75
2023/07/16 02:47:13;;;;;;;;;19.20;19.20;;;;;26.41;43.16;99222.09;5068354;28;8861;-75
2023/07/16 02:49:42;;;;;;;;;17.80;17.80;;;;;26.43;43.40;99218.25;5027068;28;8848;-76
2023/07/16 02:52:12;;;;;;;;;19.80;18.80;;;;;26.45;43.22;99218.97;5011089;28;8867;-76
2023/07/16 02:54:41;;;;;;;;;17.40;16.80;;;;;26.45;42.94;99218.97;5027351;28;8875;-75
2023/07/16 02:57:10;;;;;;;;;18.20;17.20;;;;;26.43;43.03;99220.97;4994467;28;8851;-76
2023/07/16 02:59:39;;;;;;;;;21.20;19.40;;;;;26.41;43.39;99214.84;5010752;28;8872;-76
2023/07/16 03:02:08;;;;;;;;;19.40;19.40;;;;;26.37;43.41;99221.53;5010667;28;8883;-78
2023/07/16 03:04:36;;;;;;;;;19.80;19.40;;;;;26.37;43.77;99218.00;5010520;28;8844;-77
2023/07/16 03:07:06;;;;;;;;;18.60;18.40;;;;;26.13;44.27;99226.50;4994228;28;8992;-77
2023/07/16 03:09:36;;;;;;;;;20.80;19.80;;;;;26.22;43.87;99220.25;5010213;28;8981;-75
2023/07/16 03:12:07;;;;;;;;;18.80;18.40;;;;;26.20;43.83;99212.31;5010181;28;8868;-76
2023/07/16 03:14:36;;;;;;;;;22.00;21.60;;;;;26.20;43.77;99216.84;5026530;28;9049;-78
2023/07/16 03:17:06;;;;;;;;;22.60;21.20;;;;;26.20;44.21;99225.78;4994147;28;9019;-75
2023/07/16 03:19:35;;;;;;;;;19.00;18.20;;;;;26.16;43.97;99213.59;5026470;28;8891;-75
2023/07/16 03:22:05;;;;;;;;;19.60;19.20;;;;;26.14;44.04;99225.50;5065157;28;8872;-78
2023/07/16 03:24:33;;;;;;;;;28.00;28.00;;;;;26.18;44.13;99224.22;5067488;28;8854;-75
2023/07/16 03:27:04;;;;;;;;;21.25;21.25;;;;;26.15;44.37;99228.03;5068791;28;8858;-75
2023/07/16 03:29:46;;;;;;;;;23.20;22.20;;;;;26.17;44.32;99226.06;5054528;28;8862;-76
2023/07/16 03:32:18;;;;;;;;;17.60;16.00;;;;;26.12;44.57;99230.19;5051495;28;8853;-77
2023/07/16 03:34:47;;;;;;;;;22.00;21.00;;;;;26.11;44.31;99223.09;5068742;28;8888;-76
2023/07/16 03:37:16;;;;;;;;;22.60;21.20;;;;;26.14;44.43;99220.97;5067134;28;8857;-76
2023/07/16 03:39:45;;;;;;;;;21.00;20.20;;;;;26.18;44.31;99226.94;5067539;28;8850;-76
2023/07/16 03:42:15;;;;;;;;;19.40;19.20;;;;;26.21;44.30;99230.19;5049785;28;10027;-75
2023/07/16 03:44:44;;;;;;;;;20.40;20.40;;;;;26.27;44.11;99226.94;5068498;28;9005;-75
2023/07/16 03:47:13;;;;;;;;;19.40;18.20;;;;;26.31;43.89;99230.19;5066856;28;8839;-76
2023/07/16 03:49:42;;;;;;;;;22.80;21.40;;;;;26.37;44.23;99231.47;5017087;28;8855;-76
2023/07/16 03:52:11;;;;;;;;;20.80;20.40;;;;;26.33;43.95;99232.75;5065993;28;8982;-76
2023/07/16 03:54:40;;;;;;;;;19.80;18.60;;;;;26.36;44.05;99227.94;5032602;28;8901;-75
2023/07/16 03:57:09;;;;;;;;;17.20;17.20;;;;;26.43;44.10;99236.28;5049249;28;9667;-77
2023/07/16 03:59:39;;;;;;;;;22.60;21.00;;;;;26.42;44.03;99227.34;5049319;28;8988;-77
2023/07/16 04:02:08;;;;;;;;;17.20;17.20;;;;;26.47;43.84;99230.53;5049064;28;8944;-75
2023/07/16 04:04:37;;;;;;;;;28.20;27.80;;;;;26.47;44.37;99227.81;5065925;28;8866;-76
2023/07/16 04:07:06;;;;;;;;;23.80;22.80;;;;;26.42;44.08;99237.28;5049389;28;8861;-78
2023/07/16 04:09:38;;;;;;;;;22.20;21.80;;;;;26.47;44.05;99233.22;5066025;28;8866;-75
2023/07/16 04:12:08;;;;;;;;;21.00;20.00;;;;;26.50;43.88;99231.22;5045755;28;8858;-74
2023/07/16 04:14:36;;;;;;;;;20.80;19.80;;;;;26.49;44.03;99235.75;5046029;28;8866;-76
2023/07/16 04:17:07;;;;;;;;;22.60;20.80;;;;;26.50;44.37;99233.91;5056712;28;8866;-75
2023/07/16 04:19:36;;;;;;;;;23.40;22.20;;;;;26.55;43.71;99226.22;5065893;28;8839;-75
2023/07/16 04:22:05;;;;;;;;;18.00;17.20;;;;;26.56;44.07;99225.25;5049193;28;8901;-76
2023/07/16 04:24:34;;;;;;;;;19.20;19.20;;;;;26.45;44.25;99235.13;5068259;28;8866;-75
2023/07/16 04:27:03;;;;;;;;;19.40;19.00;;;;;26.44;44.01;99221.84;5066831;28;8891;-78
2023/07/16 04:29:32;;;;;;;;;18.40;18.40;;;;;26.37;44.10;99239.56;5066859;28;8984;-75
2023/07/16 04:32:01;;;;;;;;;19.00;17.60;;;;;26.47;43.69;99243.13;5068439;28;8846;-76
2023/07/16 04:34:31;;;;;;;;;19.60;18.20;;;;;26.59;43.82;99238.44;5066373;28;8862;-78
2023/07/16 04:37:00;;;;;;;;;24.60;22.80;;;;;26.68;43.36;99240.25;5068557;28;8854;-79
2023/07/16 04:39:28;;;;;;;;;25.60;24.60;;;;;26.72;43.41;99241.72;5067088;28;8865;-75
2023/07/16 04:41:57;;;;;;;;;21.60;20.40;;;;;26.71;43.28;99242.69;5015957;28;8881;-76
2023/07/16 04:44:26;;;;;;;;;20.20;19.40;;;;;26.82;43.15;99245.22;5032212;28;8862;-76
2023/07/16 04:46:55;;;;;;;;;21.00;21.00;;;;;26.92;42.64;99249.75;5066766;28;8864;-76
2023/07/16 04:49:24;;;;;;;;;17.60;17.40;;;;;27.02;42.71;99242.50;5065963;28;8843;-76
2023/07/16 04:51:54;;;;;;;;;37.50;33.50;;;;;27.09;42.24;99240.94;5032897;28;9529;-75
2023/07/16 04:54:23;;;;;;;;;28.00;27.00;;;;;27.23;42.30;99245.00;5066719;28;8877;-76
2023/07/16 04:56:52;;;;;;;;;20.60;19.00;;;;;27.31;41.87;99249.66;5049105;28;8858;-76
2023/07/16 04:59:20;;;;;;;;;22.20;20.40;;;;;27.39;41.43;99236.28;5068248;28;8908;-76
2023/07/16 05:01:49;;;;;;;;;20.20;20.20;;;;;27.47;41.70;99247.19;5071628;28;8862;-75
2023/07/16 05:04:18;;;;;;;;;33.00;31.50;;;;;27.52;41.36;99241.34;5070239;28;8862;-79
2023/07/16 05:06:47;;;;;;;;;19.60;19.40;;;;;27.57;41.22;99245.34;5071606;28;8850;-77
2023/07/16 05:09:17;;;;;;;;;19.80;19.20;;;;;27.58;41.00;99252.44;5071525;28;8834;-75
2023/07/16 05:11:46;;;;;;;;;20.60;20.60;;;;;27.67;40.62;99244.41;5070291;28;8819;-75
2023/07/16 05:14:14;;;;;;;;;17.80;17.80;;;;;27.74;40.44;99250.94;5071222;28;8984;-78
2023/07/16 05:16:43;;;;;;;;;18.20;17.80;;;;;27.72;40.59;99248.38;5070082;28;8855;-76
2023/07/16 05:19:12;;;;;;;;;20.40;20.40;;;;;27.81;40.51;99252.88;5069324;28;8901;-76
2023/07/16 05:21:41;;;;;;;;;21.40;21.40;;;;;27.83;40.26;99250.88;5071439;28;8919;-74
2023/07/16 05:24:09;;;;;;;;;21.00;20.20;;;;;27.80;40.72;99258.44;5070875;28;10019;-76
2023/07/16 05:26:40;;;;;;;;;18.00;18.00;;;;;27.90;40.34;99251.13;5019912;28;8839;-75
2023/07/16 05:29:09;;;;;;;;;21.00;20.20;;;;;27.97;40.18;99245.97;5071463;28;8944;-76
2023/07/16 05:31:38;;;;;;;;;33.40;30.80;;;;;28.09;40.10;99246.59;5079082;28;8877;-74
2023/07/16 05:34:07;;;;;;;;;19.00;19.00;;;;;28.06;40.00;99245.03;5075751;28;9618;-75
2023/07/16 05:36:36;;;;;;;;;21.60;21.60;;;;;28.05;40.00;99247.91;5071031;28;8854;-75
2023/07/16 05:39:05;;;;;;;;;21.20;20.40;;;;;28.12;40.05;99251.72;5069716;28;8878;-75
2023/07/16 05:41:34;;;;;;;;;19.00;19.00;;;;;28.15;39.87;99246.84;5069724;28;8904;-75
2023/07/16 05:44:04;;;;;;;;;15.40;15.40;;;;;28.11;39.78;99245.47;5035607;28;8924;-74
2023/07/16 05:46:34;;;;;;;;;17.20;16.40;;;;;28.07;40.19;99249.47;5068610;28;8830;-76
2023/07/16 05:49:03;;;;;;;;;17.60;16.40;;;;;28.10;39.83;99259.97;5071433;28;8858;-77
2023/07/16 05:51:32;;;;;;;;;19.80;19.40;;;;;28.12;39.88;99255.28;5070891;28;8892;-76
2023/07/16 05:54:01;;;;;;;;;22.00;22.00;;;;;28.02;40.02;99267.97;5070877;28;8867;-77
2023/07/16 05:56:30;;;;;;;;;35.25;31.75;;;;;28.05;39.85;99259.56;5069384;28;8858;-75
2023/07/16 05:58:59;;;;;;;;;22.80;20.80;;;;;28.19;39.67;99266.31;5070685;28;8850;-77
2023/07/16 06:01:29;;;;;;;;;20.40;19.80;;;;;28.23;39.49;99262.31;5070430;28;8985;-76
2023/07/16 06:03:58;;;;;;;;;18.40;17.00;;;;;28.30;39.49;99263.41;5069093;28;8855;-75
2023/07/16 06:06:29;;;;;;;;;17.80;16.40;;;;;28.39;38.94;99265.19;5067689;28;8839;-76
2023/07/16 06:08:58;;;;;;;;;19.40;19.40;;;;;28.48;38.95;99259.84;5068091;28;8852;-77
2023/07/16 06:11:27;;;;;;;;;19.00;18.00;;;;;28.50;38.58;99256.00;5050474;28;9578;-77
2023/07/16 06:13:55;;;;;;;;;19.20;19.00;;;;;28.62;38.75;99270.13;5034048;28;9644;-76
2023/07/16 06:16:24;;;;;;;;;19.20;18.60;;;;;28.69;38.24;99273.94;5034476;28;8858;-76
2023/07/16 06:18:55;;;;;;;;;19.40;19.40;;;;;28.74;38.36;99276.16;5067867;28;8928;-78
2023/07/16 06:21:24;;;;;;;;;16.00;16.00;;;;;28.71;38.67;99281.91;5050779;28;8885;-75
2023/07/16 06:23:53;;;;;;;;;18.80;17.40;;;;;28.72;38.32;99286.28;5067309;28;9584;-76
2023/07/16 06:26:22;;;;;;;;;20.80;19.80;;;;;28.81;38.17;99284.50;5067534;28;8955;-77
2023/07/16 06:28:51;;;;;;;;;22.60;19.80;;;;;28.86;38.02;99292.97;5067305;28;8927;-76
2023/07/16 06:31:20;;;;;;;;;19.20;19.20;;;;;28.97;38.03;99284.63;5050286;28;8858;-76
2023/07/16 06:33:49;;;;;;;;;16.00;16.00;;;;;29.04;38.09;99284.84;5067133;28;8978;-76
2023/07/16 06:36:20;;;;;;;;;16.00;14.80;;;;;29.05;37.71;99291.97;5061065;28;8857;-78
2023/07/16 06:38:49;;;;;;;;;20.25;20.25;;;;;29.17;37.32;99288.00;5048114;28;9563;-77
2023/07/16 06:41:19;;;;;;;;;19.00;18.60;;;;;29.24;37.20;99294.50;5048336;28;8978;-79
2023/07/16 06:43:47;;;;;;;;;19.00;19.00;;;;;29.15;37.24;99298.13;5049808;28;8860;-77
2023/07/16 06:46:16;;;;;;;;;20.60;20.60;;;;;29.38;37.27;99299.31;5049599;28;8944;-77
2023/07/16 06:48:46;;;;;;;;;31.00;29.25;;;;;29.53;37.19;99304.13;5048502;28;8864;-76
2023/07/16 06:51:15;;;;;;;;;22.20;22.20;;;;;29.67;36.80;99299.97;5064239;28;9652;-76
2023/07/16 06:53:45;;;;;;;;;20.00;19.60;;;;;29.71;37.04;99304.94;5068406;28;8846;-76
2023/07/16 06:56:14;;;;;;;;;22.20;21.40;;;;;29.94;36.72;99304.34;5068318;28;8850;-76
2023/07/16 06:58:43;;;;;;;;;20.80;20.60;;;;;30.02;36.46;99311.66;5069257;28;8882;-76
2023/07/16 07:01:12;;;;;;;;;17.20;17.20;;;;;30.19;36.22;99310.72;5069219;28;8923;-76
2023/07/16 07:03:40;;;;;;;;;19.80;18.60;;;;;30.31;35.38;99312.13;5069028;28;8854;-75
2023/07/16 07:06:10;;;;;;;;;19.40;18.80;;;;;30.33;35.48;99309.22;5084582;28;9631;-76
2023/07/16 07:08:39;;;;;;;;;20.80;18.20;;;;;30.43;35.44;99312.66;5068709;28;8854;-77
2023/07/16 07:11:09;;;;;;;;;19.20;19.20;;;;;30.52;35.40;99317.09;5068778;28;8827;-75
2023/07/16 07:13:38;;;;;;;;;18.60;18.60;;;;;30.68;35.24;99312.72;5067783;28;8851;-75
2023/07/16 07:16:07;;;;;;;;;17.80;16.80;;;;;30.78;35.16;99320.69;5069460;28;8834;-77
2023/07/16 07:18:35;;;;;;;;;18.40;18.40;;;;;30.83;35.50;99315.59;5069964;28;8963;-75
2023/07/16 07:21:04;;;;;;;;;20.20;18.60;;;;;30.89;35.28;99317.63;5014067;28;8844;-77
2023/07/16 07:23:33;;;;;;;;;41.00;34.75;;;;;31.00;34.54;99316.47;5047541;28;8885;-76
2023/07/16 07:26:02;;;;;;;;;19.40;18.60;;;;;31.07;35.10;99318.31;5032238;28;8861;-76
2023/07/16 07:28:32;;;;;;;;;21.80;20.80;;;;;31.20;34.98;99316.97;5048122;28;8864;-76
2023/07/16 07:31:02;;;;;;;;;17.20;17.20;;;;;31.15;34.76;99308.47;5030048;28;9591;-76
2023/07/16 07:33:32;;;;;;;;;16.20;16.20;;;;;31.17;34.54;99311.84;5029705;28;8883;-77
2023/07/16 07:36:01;;;;;;;;;21.40;21.40;;;;;31.29;34.68;99305.06;5047174;28;8853;-76
2023/07/16 07:38:30;;;;;;;;;20.40;19.20;;;;;31.27;34.69;99316.09;5046192;28;8845;-75
2023/07/16 07:40:58;;;;;;;;;19.60;19.40;;;;;31.41;34.74;99306.41;5029517;28;8845;-74
2023/07/16 07:43:28;;;;;;;;;21.80;19.80;;;;;31.43;34.27;99306.22;5045941;28;8861;-75
2023/07/16 07:45:58;;;;;;;;;22.20;21.40;;;;;31.56;34.57;99311.09;5029184;28;8861;-75
2023/07/16 07:48:27;;;;;;;;;22.20;20.80;;;;;31.60;34.93;99309.72;4980872;28;8845;-78
2023/07/16 07:50:56;;;;;;;;;20.20;19.40;;;;;31.77;34.37;99310.56;5046082;28;8859;-77
2023/07/16 07:53:24;;;;;;;;;22.40;21.20;;;;;31.93;34.28;99310.50;5048108;28;8930;-75
2023/07/16 07:55:55;;;;;;;;;21.75;21.50;;;;;32.06;34.36;99307.22;5048366;28;8918;-76
2023/07/16 07:58:24;;;;;;;;;22.40;20.60;;;;;32.12;33.96;99316.53;5059857;28;8847;-76
2023/07/16 08:00:53;;;;;;;;;26.25;25.25;;;;;32.20;33.93;99316.50;5049593;28;8846;-79
2023/07/16 08:03:23;;;;;;;;;25.00;23.00;;;;;32.30;33.69;99316.28;5049307;28;8882;-77
2023/07/16 08:05:52;;;;;;;;;21.60;21.60;;;;;32.33;33.74;99308.59;5068259;28;8854;-75
2023/07/16 08:08:21;;;;;;;;;21.60;20.20;;;;;32.39;33.78;99315.19;5068129;28;8859;-77
2023/07/16 08:10:50;;;;;;;;;18.20;17.20;;;;;32.45;33.58;99315.34;5032741;28;8947;-75
2023/07/16 08:13:18;;;;;;;;;18.80;18.80;;;;;32.53;33.59;99310.88;5068078;28;8838;-75
2023/07/16 08:15:48;;;;;;;;;42.75;36.50;;;;;32.60;33.18;99311.81;5049327;28;9662;-76
2023/07/16 08:18:17;;;;;;;;;26.50;26.00;;;;;32.68;33.11;99310.94;5068203;28;8872;-78
2023/07/16 08:20:48;;;;;;;;;20.00;20.00;;;;;32.25;33.78;99308.66;5068063;28;8931;-74
2023/07/16 08:23:17;;;;;;;;;20.40;20.40;;;;;32.43;33.91;99308.38;5067264;28;9016;-75
2023/07/16 08:25:50;;;;;;;;;21.00;20.80;;;;;32.61;33.69;99313.56;5066710;28;8875;-76
2023/07/16 08:28:18;;;;;;;;;23.80;21.00;;;;;32.50;33.62;99314.78;5068032;28;8858;-76
2023/07/16 08:30:48;;;;;;;;;20.75;20.75;;;;;32.68;33.63;99319.97;5069241;28;8877;-75
2023/07/16 08:33:19;;;;;;;;;22.75;22.00;;;;;32.93;33.37;99317.88;5018877;28;8863;-76
2023/07/16 08:35:49;;;;;;;;;20.00;19.00;;;;;33.10;32.87;99320.50;5072967;28;8843;-75
2023/07/16 08:38:17;;;;;;;;;20.20;20.20;;;;;33.17;32.91;99327.75;5072297;28;8951;-78
2023/07/16 08:40:48;;;;;;;;;20.00;20.00;;;;;33.27;32.75;99323.91;5069794;28;8843;-76
2023/07/16 08:43:18;;;;;;;;;19.25;18.75;;;;;33.34;32.82;99327.56;5069857;28;8851;-76
2023/07/16 08:45:49;;;;;;;;;21.00;20.00;;;;;33.38;32.77;99326.19;5069332;28;8916;-78
2023/07/16 08:48:18;;;;;;;;;17.50;17.00;;;;;33.37;32.84;99319.88;5069564;28;8935;-76
2023/07/16 08:50:50;;;;;;;;;20.00;18.75;;;;;33.48;32.30;99321.28;5069609;28;8842;-76
2023/07/16 08:53:20;;;;;;;;;21.50;21.50;;;;;33.54;32.09;99327.91;5052650;28;8854;-75
2023/07/16 08:55:49;;;;;;;;;24.00;23.00;;;;;33.51;32.51;99320.06;5069173;28;8854;-74
2023/07/16 08:58:24;;;;;;;;;18.25;18.25;;;;;33.64;32.44;99322.16;5052186;28;8951;-75
2023/07/16 09:00:55;;;;;;;;;22.50;22.00;;;;;33.68;32.13;99329.81;5019939;28;8868;-78
2023/07/16 09:03:23;;;;;;;;;21.75;21.75;;;;;33.80;31.79;99316.53;5068965;28;8855;-76
2023/07/16 09:05:55;;;;;;;;;24.75;24.00;;;;;33.32;32.64;99321.47;5051972;28;9584;-76
2023/07/16 09:08:28;;;;;;;;;21.00;20.75;;;;;33.36;32.41;99315.47;5068816;28;8854;-77
2023/07/16 09:10:58;;;;;;;;;20.75;20.50;;;;;33.54;33.17;99320.56;5052453;28;8942;-74
2023/07/16 09:13:27;;;;;;;;;24.00;24.00;;;;;33.73;32.64;99310.97;5071335;28;8855;-78
2023/07/16 09:15:58;;;;;;;;;22.00;21.75;;;;;33.74;31.73;99309.94;5070910;28;8858;-78
2023/07/16 09:18:28;;;;;;;;;26.00;25.50;;;;;33.74;32.42;99309.94;5069865;28;8846;-76
2023/07/16 09:21:02;;;;;;;;;23.50;23.50;;;;;33.83;31.74;99318.03;5071302;28;8843;-75
2023/07/16 09:23:32;;;;;;;;;22.25;22.00;;;;;33.71;31.50;99317.66;5071103;28;8846;-75
2023/07/16 09:26:03;;;;;;;;;27.00;26.00;;;;;33.64;31.61;99316.72;5071219;28;8851;-76
2023/07/16 09:28:32;;;;;;;;;24.75;24.00;;;;;33.61;31.84;99318.78;5071290;28;8835;-75
2023/07/16 09:31:05;;;;;;;;;20.50;20.00;;;;;33.59;31.15;99322.75;5070818;28;9646;-78
2023/07/16 09:33:35;;;;;;;;;31.25;30.25;;;;;33.77;31.24;99306.00;5070796;28;8855;-77
2023/07/16 09:36:05;;;;;;;;;22.00;22.00;;;;;33.84;30.97;99306.94;5070997;28;8854;-76
2023/07/16 09:38:35;;;;;;;;;26.25;23.75;;;;;33.84;30.53;99315.09;5069647;28;9015;-75
2023/07/16 09:41:06;;;;;;;;;22.75;22.00;;;;;33.92;30.53;99311.44;5069567;28;9067;-75
2023/07/16 09:43:36;;;;;;;;;20.00;18.75;;;;;34.07;30.52;99312.28;5070910;28;8893;-76
2023/07/16 09:46:05;;;;;;;;;23.75;23.50;;;;;33.85;30.31;99315.94;5069399;28;9584;-73
2023/07/16 09:48:34;;;;;;;;;24.00;24.00;;;;;33.86;30.24;99310.31;5069579;28;9077;-76
2023/07/16 09:51:05;;;;;;;;;24.00;23.25;;;;;33.93;29.47;99304.97;5070410;28;9685;-75
2023/07/16 09:53:36;;;;;;;;;23.75;22.50;;;;;33.57;30.42;99301.13;5070572;28;8842;-80
2023/07/16 09:56:06;;;;;;;;;25.25;24.25;;;;;33.67;30.24;99305.44;5035304;28;8863;-74
2023/07/16 09:58:35;;;;;;;;;25.50;24.25;;;;;33.83;29.40;99298.94;5068779;28;10242;-76
2023/07/16 10:01:06;;;;;;;;;23.00;22.25;;;;;33.92;29.23;99301.38;5070533;28;9425;-75
2023/07/16 10:03:34;;;;;;;;;22.00;22.00;;;;;34.09;29.68;99298.44;5070245;28;8874;-76
2023/07/16 10:06:09;;;;;;;;;27.50;25.25;;;;;34.15;29.52;99295.81;5067629;28;8826;-76
2023/07/16 10:08:37;;;;;;;;;22.00;21.75;;;;;34.30;30.23;99303.09;5070038;28;8831;-75
2023/07/16 10:11:17;;;;;;;;;23.50;23.50;;;;;34.47;29.46;99301.00;5070053;28;8924;-75
2023/07/16 10:13:50;;;;;;;;;42.50;36.75;;;;;34.10;29.66;99292.81;5034515;28;8878;-75
2023/07/16 10:16:23;;;;;;;;;28.75;27.25;;;;;34.30;30.47;99295.78;5035150;28;8946;-75
2023/07/16 10:18:54;;;;;;;;;25.25;23.00;;;;;34.33;29.08;99289.91;5069924;28;8846;-75
2023/07/16 10:21:27;;;;;;;;;29.00;26.75;;;;;34.54;29.21;99285.53;5070010;28;8850;-76
2023/07/16 10:23:59;;;;;;;;;24.25;24.25;;;;;34.30;28.09;99289.44;5068648;28;8846;-77
2023/07/16 10:26:29;;;;;;;;;25.00;24.00;;;;;34.14;28.95;99290.56;5070153;28;8858;-76
2023/07/16 10:28:58;;;;;;;;;27.25;27.25;;;;;34.29;29.01;99288.63;5068699;28;8923;-78
2023/07/16 10:31:27;;;;;;;;;28.00;25.75;;;;;34.08;27.55;99294.88;5069946;28;8977;-74
2023/07/16 10:34:04;;;;;;;;;26.75;26.00;;;;;34.16;27.51;99291.19;5069741;28;9010;-74
2023/07/16 10:36:39;;;;;;;;;25.50;25.50;;;;;34.37;27.71;99287.66;5069586;28;8983;-75
2023/07/16 10:39:08;;;;;;;;;45.50;38.25;;;;;34.25;29.32;99289.22;5069903;28;8850;-75
2023/07/16 10:41:38;;;;;;;;;32.75;30.50;;;;;34.46;28.40;99285.69;5050738;28;8938;-75
2023/07/16 10:44:09;;;;;;;;;27.00;27.00;;;;;34.71;28.32;99288.84;5069583;28;8870;-75
2023/07/16 10:46:38;;;;;;;;;25.50;25.50;;;;;34.42;29.23;99278.91;5069490;28;8869;-74
2023/07/16 10:49:07;;;;;;;;;24.00;24.00;;;;;34.36;30.15;99286.81;5069488;28;8850;-75
2023/07/16 10:51:36;;;;;;;;;27.50;26.50;;;;;34.60;29.32;99281.19;5069428;28;8867;-76
2023/07/16 10:54:06;;;;;;;;;24.00;24.00;;;;;34.81;29.14;99272.13;5069311;28;8854;-74
2023/07/16 10:56:37;;;;;;;;;24.00;21.75;;;;;34.99;28.65;99280.72;5069103;28;8854;-76
2023/07/16 10:59:07;;;;;;;;;25.75;25.75;;;;;34.60;29.32;99273.81;5069366;28;8834;-75
2023/07/16 11:01:37;;;;;;;;;25.00;24.50;;;;;35.00;28.95;99276.09;5069057;28;9681;-76
2023/07/16 11:04:08;;;;;;;;;22.75;22.75;;;;;35.00;28.55;99276.91;5069167;28;8862;-75
2023/07/16 11:06:37;;;;;;;;;23.75;23.50;;;;;35.37;28.13;99271.34;5069415;28;8870;-76
2023/07/16 11:09:10;;;;;;;;;23.25;23.25;;;;;34.99;26.89;99275.25;5068038;28;8983;-75
2023/07/16 11:11:40;;;;;;;;;23.50;23.50;;;;;34.58;27.82;99273.19;5069194;28;8851;-75
2023/07/16 11:14:10;;;;;;;;;23.25;23.25;;;;;34.52;27.64;99273.97;5069229;28;8855;-75
2023/07/16 11:16:39;;;;;;;;;23.50;23.25;;;;;34.26;26.79;99277.25;5067780;28;9600;-74
2023/07/16 11:19:08;;;;;;;;;22.75;22.75;;;;;33.71;28.08;99272.16;5069417;28;9635;-79
2023/07/16 11:21:38;;;;;;;;;19.50;19.00;;;;;33.45;28.21;99260.88;5084928;28;8834;-78
2023/07/16 11:24:14;;;;;;;;;23.25;23.25;;;;;34.02;27.52;99267.53;5050552;28;8935;-75
2023/07/16 11:26:51;;;;;;;;;25.75;25.25;;;;;34.23;28.01;99272.16;5068931;28;8842;-76
2023/07/16 11:29:19;;;;;;;;;22.00;21.50;;;;;34.82;28.18;99268.38;5069085;28;8943;-75
2023/07/16 11:31:50;;;;;;;;;24.00;24.00;;;;;35.05;28.58;99271.72;5068997;28;8857;-76
2023/07/16 11:34:21;;;;;;;;;25.75;25.75;;;;;35.69;26.72;99267.91;5068988;28;9023;-76
2023/07/16 11:36:51;;;;;;;;;24.50;23.75;;;;;35.53;25.78;99262.78;5069038;28;8916;-75